UAE59U OMDB-OBBI
Flight info
| Callsign | UAE59U |
|---|---|
| Flight time | 0h 49m |
| Altitude | 26000 |
| Route | NABIX P699 ORMID M556 ORDIG |
| Aircraft | A343/H-SDE2E3FGHIJ4J5M1RWXY/LB1D1 |
Departure
| Time | 2026-05-04 15:38 |
|---|---|
| Airport | Dubai International Airport (OMDB) |
Arrival
| Time | 2026-05-04 16:28 |
|---|---|
| Airport | Bahrain International Airport (OBBI) |
| Time | Latitude | Longitude | Altitude | Speed | Heading |
|---|---|---|---|---|---|
| 2026-05-04 15:02 | 25.24924 | 55.36223 | 25 ft | 0 kts | 211° |
| 2026-05-04 15:21 | 25.24936 | 55.36231 | 25 ft | 4 kts | 217° |
| 2026-05-04 15:22 | 25.24956 | 55.36250 | 25 ft | 4 kts | 231° |
| 2026-05-04 15:22 | 25.24970 | 55.36275 | 30 ft | 4 kts | 248° |
| 2026-05-04 15:22 | 25.24975 | 55.36332 | 29 ft | 4 kts | 294° |
| 2026-05-04 15:23 | 25.24975 | 55.36333 | 27 ft | 4 kts | 300° |
| 2026-05-04 15:23 | 25.24989 | 55.36307 | 25 ft | 4 kts | 301° |
| 2026-05-04 15:23 | 25.25003 | 55.36282 | 30 ft | 4 kts | 302° |
| 2026-05-04 15:23 | 25.25017 | 55.36256 | 30 ft | 4 kts | 302° |
| 2026-05-04 15:24 | 25.25038 | 55.36222 | 28 ft | 3 kts | 303° |
| 2026-05-04 15:30 | 25.25154 | 55.36018 | 29 ft | 17 kts | 302° |
| 2026-05-04 15:30 | 25.25345 | 55.35676 | 30 ft | 20 kts | 302° |
| 2026-05-04 15:31 | 25.25502 | 55.35396 | 31 ft | 23 kts | 302° |
| 2026-05-04 15:31 | 25.25567 | 55.35283 | 30 ft | 16 kts | 302° |
| 2026-05-04 15:32 | 25.25780 | 55.35222 | 30 ft | 18 kts | 32° |
| 2026-05-04 15:32 | 25.26002 | 55.35413 | 31 ft | 22 kts | 69° |
| 2026-05-04 15:33 | 25.25888 | 55.35736 | 27 ft | 25 kts | 122° |
| 2026-05-04 15:34 | 25.25586 | 55.36269 | 27 ft | 29 kts | 121° |
| 2026-05-04 15:34 | 25.25476 | 55.36466 | 27 ft | 31 kts | 121° |
| 2026-05-04 15:34 | 25.25246 | 55.36877 | 32 ft | 18 kts | 122° |
| 2026-05-04 15:35 | 25.25148 | 55.37051 | 27 ft | 15 kts | 122° |
| 2026-05-04 15:35 | 25.25089 | 55.37157 | 28 ft | 17 kts | 122° |
| 2026-05-04 15:35 | 25.25009 | 55.37298 | 28 ft | 25 kts | 122° |
| 2026-05-04 15:36 | 25.24809 | 55.37650 | 27 ft | 29 kts | 121° |
| 2026-05-04 15:36 | 25.24705 | 55.37837 | 27 ft | 28 kts | 122° |
| 2026-05-04 15:36 | 25.24667 | 55.37922 | 27 ft | 9 kts | 101° |
| 2026-05-04 15:37 | 25.24691 | 55.37968 | 27 ft | 7 kts | 37° |
| 2026-05-04 15:37 | 25.24746 | 55.38010 | 29 ft | 11 kts | 31° |
| 2026-05-04 15:37 | 25.24816 | 55.38009 | 29 ft | 10 kts | 314° |
| 2026-05-04 15:37 | 25.24829 | 55.37985 | 29 ft | 3 kts | 301° |
| 2026-05-04 15:38 | 25.24928 | 55.37806 | 30 ft | 62 kts | 301° |
| 2026-05-04 15:38 | 25.25278 | 55.37166 | 31 ft | 129 kts | 301° |
| 2026-05-04 15:38 | 25.25841 | 55.36154 | 99 ft | 175 kts | 300° |
| 2026-05-04 15:38 | 25.26474 | 55.35026 | 871 ft | 175 kts | 300° |
| 2026-05-04 15:39 | 25.27139 | 55.33829 | 1499 ft | 189 kts | 300° |
| 2026-05-04 15:39 | 25.27838 | 55.32567 | 2255 ft | 195 kts | 300° |
| 2026-05-04 15:39 | 25.28920 | 55.29706 | 3504 ft | 223 kts | 275° |
| 2026-05-04 15:40 | 25.28894 | 55.27872 | 3938 ft | 253 kts | 266° |
| 2026-05-04 15:40 | 25.28712 | 55.25878 | 4687 ft | 266 kts | 264° |
| 2026-05-04 15:40 | 25.28502 | 55.23819 | 5600 ft | 273 kts | 264° |
| 2026-05-04 15:40 | 25.28285 | 55.21712 | 6541 ft | 278 kts | 264° |
| 2026-05-04 15:41 | 25.28067 | 55.19565 | 7472 ft | 283 kts | 264° |
| 2026-05-04 15:41 | 25.27845 | 55.17383 | 8387 ft | 288 kts | 264° |
| 2026-05-04 15:41 | 25.27618 | 55.15163 | 9287 ft | 293 kts | 264° |
| 2026-05-04 15:41 | 25.27386 | 55.12916 | 9945 ft | 308 kts | 264° |
| 2026-05-04 15:42 | 25.27138 | 55.10486 | 10367 ft | 329 kts | 265° |
| 2026-05-04 15:42 | 25.26877 | 55.07919 | 10918 ft | 343 kts | 265° |
| 2026-05-04 15:42 | 25.26605 | 55.05271 | 11665 ft | 350 kts | 265° |
| 2026-05-04 15:42 | 25.26328 | 55.02584 | 12466 ft | 355 kts | 265° |
| 2026-05-04 15:43 | 25.26048 | 54.99861 | 13302 ft | 358 kts | 265° |
| 2026-05-04 15:43 | 25.25764 | 54.97113 | 14131 ft | 361 kts | 265° |
| 2026-05-04 15:43 | 25.25478 | 54.94343 | 14956 ft | 365 kts | 265° |
| 2026-05-04 15:43 | 25.25189 | 54.91551 | 15778 ft | 368 kts | 265° |
| 2026-05-04 15:44 | 25.24901 | 54.88772 | 16580 ft | 371 kts | 265° |
| 2026-05-04 15:44 | 25.24605 | 54.85929 | 17421 ft | 374 kts | 265° |
| 2026-05-04 15:44 | 25.24307 | 54.83063 | 18212 ft | 378 kts | 265° |
| 2026-05-04 15:44 | 25.24006 | 54.80171 | 19009 ft | 381 kts | 265° |
| 2026-05-04 15:45 | 25.23700 | 54.77253 | 19752 ft | 384 kts | 265° |
| 2026-05-04 15:45 | 25.23392 | 54.74306 | 20476 ft | 388 kts | 265° |
| 2026-05-04 15:45 | 25.23080 | 54.71332 | 21175 ft | 392 kts | 264° |
| 2026-05-04 15:45 | 25.22765 | 54.68328 | 21869 ft | 395 kts | 264° |
| 2026-05-04 15:46 | 25.22451 | 54.65347 | 22538 ft | 398 kts | 264° |
| 2026-05-04 15:46 | 25.22128 | 54.62299 | 23155 ft | 401 kts | 264° |
| 2026-05-04 15:46 | 25.21804 | 54.59228 | 23780 ft | 405 kts | 264° |
| 2026-05-04 15:46 | 25.21481 | 54.56129 | 24388 ft | 408 kts | 264° |
| 2026-05-04 15:47 | 25.21415 | 54.52992 | 24971 ft | 410 kts | 274° |
| 2026-05-04 15:47 | 25.21851 | 54.49871 | 25505 ft | 414 kts | 281° |
| 2026-05-04 15:47 | 25.22518 | 54.46771 | 25725 ft | 417 kts | 284° |
| 2026-05-04 15:47 | 25.23301 | 54.43681 | 25753 ft | 430 kts | 285° |
| 2026-05-04 15:48 | 25.24156 | 54.40494 | 25751 ft | 435 kts | 285° |
| 2026-05-04 15:48 | 25.25021 | 54.37290 | 25746 ft | 434 kts | 285° |
| 2026-05-04 15:48 | 25.26665 | 54.31027 | 25748 ft | 419 kts | 285° |
| 2026-05-04 15:49 | 25.27454 | 54.27935 | 25748 ft | 418 kts | 284° |
| 2026-05-04 15:49 | 25.28228 | 54.24838 | 25748 ft | 418 kts | 284° |
| 2026-05-04 15:49 | 25.28991 | 54.21743 | 25748 ft | 418 kts | 284° |
| 2026-05-04 15:49 | 25.29751 | 54.18643 | 25748 ft | 418 kts | 284° |
| 2026-05-04 15:50 | 25.30514 | 54.15541 | 25748 ft | 418 kts | 284° |
| 2026-05-04 15:50 | 25.31266 | 54.12484 | 25748 ft | 418 kts | 284° |
| 2026-05-04 15:50 | 25.31984 | 54.09372 | 25748 ft | 418 kts | 283° |
| 2026-05-04 15:50 | 25.32646 | 54.06246 | 25748 ft | 418 kts | 282° |
| 2026-05-04 15:51 | 25.33284 | 54.03116 | 25748 ft | 417 kts | 282° |
| 2026-05-04 15:51 | 25.33918 | 53.99988 | 25748 ft | 417 kts | 282° |
| 2026-05-04 15:51 | 25.34556 | 53.96862 | 25748 ft | 417 kts | 282° |
| 2026-05-04 15:51 | 25.35203 | 53.93734 | 25748 ft | 418 kts | 282° |
| 2026-05-04 15:52 | 25.35847 | 53.90645 | 25748 ft | 418 kts | 282° |
| 2026-05-04 15:52 | 25.36504 | 53.87515 | 25748 ft | 418 kts | 282° |
| 2026-05-04 15:52 | 25.37164 | 53.84385 | 25748 ft | 418 kts | 282° |
| 2026-05-04 15:52 | 25.37828 | 53.81252 | 25748 ft | 418 kts | 282° |
| 2026-05-04 15:53 | 25.38489 | 53.78122 | 25748 ft | 418 kts | 282° |
| 2026-05-04 15:53 | 25.39146 | 53.74990 | 25748 ft | 418 kts | 282° |
| 2026-05-04 15:53 | 25.39802 | 53.71857 | 25748 ft | 418 kts | 282° |
| 2026-05-04 15:53 | 25.40457 | 53.68723 | 25748 ft | 418 kts | 282° |
| 2026-05-04 15:54 | 25.41112 | 53.65593 | 25748 ft | 418 kts | 282° |
| 2026-05-04 15:54 | 25.41769 | 53.62456 | 25748 ft | 418 kts | 282° |
| 2026-05-04 15:54 | 25.42415 | 53.59366 | 25748 ft | 418 kts | 282° |
| 2026-05-04 15:54 | 25.43072 | 53.56235 | 25748 ft | 418 kts | 282° |
| 2026-05-04 15:55 | 25.43728 | 53.53103 | 25748 ft | 418 kts | 282° |
| 2026-05-04 15:55 | 25.44379 | 53.49965 | 25748 ft | 419 kts | 282° |
| 2026-05-04 15:55 | 25.45029 | 53.46826 | 25758 ft | 419 kts | 282° |
| 2026-05-04 15:55 | 25.45678 | 53.43694 | 25758 ft | 418 kts | 282° |
| 2026-05-04 15:56 | 25.46330 | 53.40549 | 25758 ft | 418 kts | 282° |
| 2026-05-04 15:56 | 25.46980 | 53.37410 | 25756 ft | 419 kts | 282° |
| 2026-05-04 15:56 | 25.47628 | 53.34274 | 25756 ft | 419 kts | 282° |
| 2026-05-04 15:56 | 25.48269 | 53.31176 | 25758 ft | 419 kts | 282° |
| 2026-05-04 15:57 | 25.48919 | 53.28035 | 25758 ft | 419 kts | 282° |
| 2026-05-04 15:57 | 25.49567 | 53.24892 | 25758 ft | 419 kts | 282° |
| 2026-05-04 15:57 | 25.50215 | 53.21752 | 25758 ft | 420 kts | 282° |
| 2026-05-04 15:57 | 25.50862 | 53.18602 | 25758 ft | 420 kts | 281° |
| 2026-05-04 15:58 | 25.51506 | 53.15452 | 25763 ft | 420 kts | 281° |
| 2026-05-04 15:58 | 25.52151 | 53.12301 | 25767 ft | 420 kts | 281° |
| 2026-05-04 15:58 | 25.52796 | 53.09148 | 25767 ft | 420 kts | 281° |
| 2026-05-04 15:58 | 25.53430 | 53.06039 | 25767 ft | 420 kts | 281° |
| 2026-05-04 15:59 | 25.54072 | 53.02890 | 25767 ft | 419 kts | 281° |
| 2026-05-04 15:59 | 25.54713 | 52.99743 | 25767 ft | 420 kts | 281° |
| 2026-05-04 15:59 | 25.55356 | 52.96590 | 25766 ft | 420 kts | 281° |
| 2026-05-04 15:59 | 25.56011 | 52.93436 | 25765 ft | 420 kts | 283° |
| 2026-05-04 16:00 | 25.56966 | 52.90376 | 25768 ft | 422 kts | 292° |
| 2026-05-04 16:00 | 25.58222 | 52.87436 | 25767 ft | 423 kts | 294° |
| 2026-05-04 16:00 | 25.59568 | 52.84533 | 25767 ft | 423 kts | 296° |
| 2026-05-04 16:00 | 25.60963 | 52.81658 | 25767 ft | 424 kts | 296° |
| 2026-05-04 16:01 | 25.62378 | 52.78796 | 25767 ft | 424 kts | 296° |
| 2026-05-04 16:01 | 25.63776 | 52.75973 | 25767 ft | 424 kts | 296° |
| 2026-05-04 16:01 | 25.65191 | 52.73108 | 25766 ft | 424 kts | 296° |
| 2026-05-04 16:01 | 25.66601 | 52.70240 | 25747 ft | 423 kts | 296° |
| 2026-05-04 16:02 | 25.68003 | 52.67372 | 25748 ft | 423 kts | 296° |
| 2026-05-04 16:02 | 25.69400 | 52.64500 | 25747 ft | 423 kts | 296° |
| 2026-05-04 16:02 | 25.72186 | 52.58757 | 25750 ft | 423 kts | 296° |
| 2026-05-04 16:03 | 25.73581 | 52.55881 | 25748 ft | 423 kts | 296° |
| 2026-05-04 16:03 | 25.74976 | 52.53004 | 25745 ft | 423 kts | 296° |
| 2026-05-04 16:03 | 25.76370 | 52.50131 | 25750 ft | 423 kts | 296° |
| 2026-05-04 16:03 | 25.77734 | 52.47282 | 25748 ft | 423 kts | 295° |
| 2026-05-04 16:04 | 25.79083 | 52.44385 | 25747 ft | 423 kts | 295° |
| 2026-05-04 16:04 | 25.81760 | 52.38565 | 25750 ft | 423 kts | 295° |
| 2026-05-04 16:04 | 25.83098 | 52.35657 | 25724 ft | 423 kts | 295° |
| 2026-05-04 16:05 | 25.84436 | 52.32760 | 25498 ft | 422 kts | 295° |
| 2026-05-04 16:05 | 25.85779 | 52.29862 | 25242 ft | 422 kts | 295° |
| 2026-05-04 16:05 | 25.89197 | 52.24536 | 24743 ft | 425 kts | 308° |
| 2026-05-04 16:06 | 25.91147 | 52.22065 | 24499 ft | 425 kts | 309° |
| 2026-05-04 16:06 | 25.96448 | 52.15692 | 23837 ft | 423 kts | 310° |
| 2026-05-04 16:07 | 25.99124 | 52.12499 | 23512 ft | 421 kts | 310° |
| 2026-05-04 16:07 | 26.05050 | 52.05358 | 22774 ft | 416 kts | 310° |
| 2026-05-04 16:08 | 26.07005 | 52.02997 | 22519 ft | 414 kts | 310° |
| 2026-05-04 16:08 | 26.12787 | 51.95988 | 21770 ft | 409 kts | 310° |
| 2026-05-04 16:09 | 26.16612 | 51.91337 | 21269 ft | 406 kts | 310° |
| 2026-05-04 16:09 | 26.20406 | 51.86722 | 20767 ft | 402 kts | 310° |
| 2026-05-04 16:10 | 26.24129 | 51.82109 | 20268 ft | 398 kts | 306° |
| 2026-05-04 16:11 | 26.28213 | 51.74281 | 19516 ft | 385 kts | 295° |
| 2026-05-04 16:11 | 26.29406 | 51.71603 | 19273 ft | 389 kts | 294° |
| 2026-05-04 16:12 | 26.32962 | 51.63486 | 18521 ft | 383 kts | 295° |
| 2026-05-04 16:12 | 26.36485 | 51.55547 | 17765 ft | 379 kts | 295° |
| 2026-05-04 16:13 | 26.38541 | 51.50224 | 17271 ft | 375 kts | 290° |
| 2026-05-04 16:13 | 26.40315 | 51.44839 | 16785 ft | 351 kts | 289° |
| 2026-05-04 16:14 | 26.41853 | 51.40180 | 15967 ft | 298 kts | 290° |
| 2026-05-04 16:14 | 26.43256 | 51.35963 | 14581 ft | 283 kts | 290° |
| 2026-05-04 16:15 | 26.44892 | 51.29855 | 12391 ft | 273 kts | 270° |
| 2026-05-04 16:16 | 26.43721 | 51.25885 | 11114 ft | 276 kts | 237° |
| 2026-05-04 16:16 | 26.39876 | 51.20751 | 8360 ft | 297 kts | 233° |
| 2026-05-04 16:17 | 26.37191 | 51.17279 | 6499 ft | 292 kts | 233° |
| 2026-05-04 16:18 | 26.33429 | 51.12441 | 5001 ft | 251 kts | 233° |
| 2026-05-04 16:18 | 26.32283 | 51.11005 | 4617 ft | 247 kts | 233° |
| 2026-05-04 16:19 | 26.29009 | 51.06530 | 3536 ft | 248 kts | 242° |
| 2026-05-04 16:19 | 26.27480 | 51.03843 | 3051 ft | 244 kts | 243° |
| 2026-05-04 16:20 | 26.24711 | 50.98498 | 2527 ft | 239 kts | 248° |
| 2026-05-04 16:20 | 26.23299 | 50.95334 | 2129 ft | 214 kts | 248° |
| 2026-05-04 16:21 | 26.21674 | 50.91614 | 1998 ft | 196 kts | 248° |
| 2026-05-04 16:22 | 26.20281 | 50.88411 | 2001 ft | 200 kts | 248° |
| 2026-05-04 16:22 | 26.19757 | 50.83949 | 1997 ft | 195 kts | 273° |
| 2026-05-04 16:23 | 26.19737 | 50.80228 | 2005 ft | 174 kts | 273° |
| 2026-05-04 16:24 | 26.20425 | 50.75081 | 2003 ft | 170 kts | 305° |
| 2026-05-04 16:25 | 26.21612 | 50.72957 | 1741 ft | 151 kts | 302° |
| 2026-05-04 16:26 | 26.23765 | 50.69157 | 964 ft | 144 kts | 302° |
| 2026-05-04 16:26 | 26.25375 | 50.66338 | 360 ft | 143 kts | 302° |
| 2026-05-04 16:27 | 26.26441 | 50.64473 | 40 ft | 143 kts | 303° |
| 2026-05-04 16:28 | 26.27399 | 50.62814 | 21 ft | 30 kts | 302° |
| 2026-05-04 16:28 | 26.27316 | 50.62621 | 24 ft | 8 kts | 122° |
| 2026-05-04 16:29 | 26.27125 | 50.62938 | 26 ft | 15 kts | 127° |
| 2026-05-04 16:30 | 26.26966 | 50.63211 | 27 ft | 12 kts | 122° |
| 2026-05-04 16:31 | 26.26856 | 50.63384 | 24 ft | 7 kts | 159° |
| 2026-05-04 16:31 | 26.26742 | 50.63386 | 25 ft | 4 kts | 124° |
| 2026-05-04 16:32 | 26.26644 | 50.63393 | 26 ft | 1 kts | 213° |
| 2026-05-04 16:33 | 26.26631 | 50.63383 | 26 ft | 0 kts | 213° |